Troy, OH

11:37 PM EDT on May 04, 2015 (GMT -0400)
Rural | | Change Station
CLOSE
Current Station
Personal Weather Station
Location: Troy, OH
Elevation: 854 ft
Nearby Weather Stations

Elev 854 ft 40.01 °N, 84.21 °W | Updated 18 seconds ago

Rain
Rain
63.1 °F
Feels Like 63.1 °F
N
0.0
Wind Variable Wind from NW
Gusts 12.0 mph

Today
High -- | Low -- °F
--% Chance of Precip.
Yesterday
High -- | Low -- °F
Precip. -- in
6:33 AM 8:34 PM
Full, 99% visible
Pressure 30.23 in
Visibility 8.0 miles
Clouds Mostly Cloudy 5000 ft
Overcast 6000 ft
Dew Point 62 °F
Humidity 95%
Rainfall 0.00 in
Snow Depth Not available.
UV 0.0 out of 12
Pollen 10.80 out of 12
Air Quality Not available.
Flu Activity Regional
SPECI KDAY 050322Z 29006KT 8SM -TSRA BKN050CB OVC060 19/15 A3023 RMK AO2 RAB16 TSB16 PRESRR OCNL LTGICCCCG SW TS SW MOV E P0000 T01940150

More Conditions Fewer Conditions

Pressure 30.23 in
Visibility 8.0 miles
Clouds Mostly Cloudy 5000 ft
Overcast 6000 ft
Dew Point 62 °F
Humidity 95%
Rainfall 0.00 in
Snow Depth Not available.
UV 0.0 out of 12
Pollen 10.80 out of 12
Air Quality Not available.
Flu Activity Regional
SPECI KDAY 050322Z 29006KT 8SM -TSRA BKN050CB OVC060 19/15 A3023 RMK AO2 RAB16 TSB16 PRESRR OCNL LTGICCCCG SW TS SW MOV E P0000 T01940150

More Conditions Fewer Conditions

Nepal has a long way to go to dig out and rebuild from a devastating earthquake. We have teamed up with several charities and organizations to make contributing to the relief effort as easy as possible.
How you can help: Portlight Strategies | Red Cross

10-Day Weather Forecast

Almanac

Astronomy

May. 04, 2015 Rise Set
Actual Time
Civil Twilight
Nautical Twilight
Astronomical Twilight
Moon
Length of Visible Light
Length of Day
Tomorrow will be .
, % of the Moon is Illuminated

Today's Extremes

State Highs State Lows

Community

WunderPhotos

Upload Photos

1,818,812 photos uploaded!

WunderBlogs® & News

Nearby

Air Quality

  Air Quality AQ Index Pollutant
Not available.

Snow Depth

Station Depth Elevation

Earthquake Activity

City Distance Mag. Time & Date
Minimum magnitude displayed is 2.5.

Coastal Water Temperatures

Place Temperature

Stations

Nearby Weather Stations

Station Location Temp. Windchill Dew Point Humidity Wind Precip. Elev Updated Type